GW1956 Weather Reports


time (UTC)temp
F
wind
direction
speed
knots
gust
knots
rain 1hr
in
rain 24hr
in
rain mn
in
humidity
%
barometer
mb
20260504205104 0 0.0 0.0 0.00 0.09 0.09 1161.3
20260504204602 0 0.0 0.0 0.00 0.09 0.09 1161.3
20260504204101 0 0.0 0.0 0.00 0.09 0.09 1161.4
20260504203559 0 0.0 0.0 0.00 0.09 0.09 1161.0
20260504203056 0 0.0 0.0 0.00 0.09 0.09 1161.3
20260504202551 0 0.0 0.0 0.00 0.09 0.09 1161.6
20260504202048 0 0.0 0.0 0.00 0.09 0.09 1161.8
20260504201545 0 0.0 0.0 0.00 0.09 0.09 1161.5
20260504201043 0 0.0 0.0 0.00 0.09 0.09 1161.6
20260504200539 0 0.0 0.0 0.00 0.09 0.09 1161.6
20260504200036 0 0.0 0.0 0.00 0.09 0.09 1161.5
20260504195532 0 0.0 0.0 0.00 0.09 0.09 1161.7
20260504195029 0 0.0 0.0 0.00 0.09 0.09 1161.7
20260504194525 0 0.0 0.0 0.00 0.09 0.09 1162.2
20260504194021 0 0.0 0.0 0.00 0.09 0.09 1162.2
20260504193518 0 0.0 0.0 0.00 0.09 0.09 1162.1
20260504193017 0 0.0 0.0 0.00 0.09 0.09 1161.8
20260504192514 0 0.0 0.0 0.00 0.09 0.09 1161.4
20260504192013 0 0.0 0.0 0.00 0.09 0.09 1161.6
20260504191510 0 0.0 0.0 0.00 0.09 0.09 1162.4
20260504191006 0 0.0 0.0 0.05 0.09 0.09 1162.9
20260504190502 0 0.0 0.0 0.07 0.09 0.09 1162.8
20260504185958 0 0.0 0.0 0.09 0.08 0.08 1163.3
20260504185455 0 0.0 0.0 0.07 0.07 0.07 1163.0
20260504184952 0 0.0 0.0 0.05 0.07 0.07 1163.0
20260504184447 0 0.0 0.0 0.12 0.06 0.06 1162.8
20260504183943 0 0.0 0.0 0.31 0.06 0.06 1162.8
20260504183440 0 0.0 0.0 0.24 0.04 0.04 1163.1
20260504182938 0 0.0 0.0 0.05 0.01 0.01 1163.8
20260504182435 0 0.0 0.0 0.02 0.00 0.00 1163.8
20260504181932 0 0.0 0.0 0.00 0.00 0.00 1163.9
20260504181429 0 0.0 0.0 0.00 0.00 0.00 1163.9
20260504180928 0 0.0 0.0 0.00 0.00 0.00 1164.1
20260504180426 0 0.0 0.0 0.00 0.00 0.00 1163.4
20260504175924 0 0.0 0.0 0.00 0.00 0.00 1163.4
20260504175421 0 0.0 0.0 0.00 0.00 0.00 1163.6
20260504174919 0 0.0 0.0 0.00 0.00 0.00 1163.4
20260504174416 0 0.0 0.0 0.00 0.00 0.00 1163.4
20260504173913 0 0.0 0.0 0.00 0.00 0.00 1163.4
20260504173409 0 0.0 0.0 0.00 0.00 0.00 1163.7
20260504172907 0 0.0 0.0 0.00 0.00 0.00 1163.8
20260504172403 0 0.0 0.0 0.00 0.00 0.00 1163.7
20260504171859 0 0.0 0.0 0.00 0.00 0.00 1163.4
20260504171357 0 0.0 0.0 0.00 0.00 0.00 1163.1
20260504170854 0 0.0 0.0 0.00 0.00 0.00 1163.4
20260504170350 0 0.0 0.0 0.00 0.00 0.00 1163.6
20260504160309 0 0.0 0.0 0.00 0.00 0.00 1165.3
20260504150734 0 0.0 0.0 0.00 0.00 0.00 1165.6
20260504150230 0 0.0 0.0 0.00 0.00 0.00 1166.0
20260504141200 0 0.0 0.0 0.00 0.00 0.00 1165.3
20260504140656 0 0.0 0.0 0.00 0.00 0.00 1165.5
20260504140152 0 0.0 0.0 0.00 0.00 0.00 1165.5
20260504130620 0 0.0 0.0 0.00 0.00 0.00 1166.1
20260504130117 0 0.0 0.0 0.00 0.00 0.00 1166.1
20260504110509 0 0.0 0.0 0.00 0.00 0.00 1166.4
20260504100430 0 0.0 0.0 0.00 0.00 0.00 1166.2
20260504081823 0 0.0 0.0 0.00 0.00 0.00 1166.4
20260504081320 0 0.0 0.0 0.00 0.00 0.00 1166.4
20260504080816 0 0.0 0.0 0.00 0.00 0.00 1166.3
20260504080314 0 0.0 0.0 0.00 0.00 0.00 1166.2
20260504070241 0 0.0 0.0 0.00 0.00 0.00 1166.5
20260504060201 0 0.0 0.0 0.00 0.00 0.00 1166.4
20260504050629 0 0.0 0.0 0.00 0.00 0.00 1166.1
20260504050126 0 0.0 0.0 0.00 0.00 0.00 1165.7
20260504045623 0 0.0 0.0 0.00 0.00 0.00 1166.0
20260504045118 0 0.0 0.0 0.00 0.00 0.00 1165.7
20260504044616 0 0.0 0.0 0.00 0.00 0.00 1165.8
20260504044113 0 0.0 0.0 0.00 0.00 0.00 1166.1
20260504043610 0 0.0 0.0 0.00 0.00 0.00 1166.3
20260504043107 0 0.0 0.0 0.00 0.00 0.00 1166.6
20260504042604 0 0.0 0.0 0.00 0.00 0.00 1166.8
20260504042101 0 0.0 0.0 0.00 0.00 0.00 1166.9
20260504041556 0 0.0 0.0 0.00 0.00 0.00 1166.9
20260504041053 0 0.0 0.0 0.00 0.00 0.00 1166.9
20260504040551 0 0.0 0.0 0.00 0.00 0.00 1166.3
20260504040047 0 0.0 0.0 0.00 0.00 0.00 1167.4
20260504035544 0 0.0 0.0 0.00 0.00 0.00 1167.8
20260504035040 0 0.0 0.0 0.00 0.00 0.00 1167.6
20260504034538 0 0.0 0.0 0.00 0.00 0.00 1167.4
20260504034035 0 0.0 0.0 0.00 0.00 0.00 1167.8
20260504033533 0 0.0 0.0 0.00 0.00 0.00 1167.7
20260504033030 0 0.0 0.0 0.00 0.00 0.00 1167.8
20260504032527 0 0.0 0.0 0.00 0.00 0.00 1167.7
20260504032024 0 0.0 0.0 0.00 0.00 0.00 1167.8
20260504031521 0 0.0 0.0 0.00 0.00 0.00 1167.9
20260504031017 0 0.0 0.0 0.00 0.00 0.00 1167.7
20260504030514 0 0.0 0.0 0.00 0.00 0.00 1167.6
20260504030010 0 0.0 0.0 0.00 0.00 0.00 1167.4
20260504025507 0 0.0 0.0 0.00 0.00 0.00 1167.6
20260504025004 0 0.0 0.0 0.00 0.00 0.00 1167.4
20260504024502 0 0.0 0.0 0.00 0.00 0.00 1167.6
20260504023959 0 0.0 0.0 0.00 0.00 0.00 1167.4
20260504023455 0 0.0 0.0 0.00 0.00 0.00 1167.3
20260504022950 0 0.0 0.0 0.00 0.00 0.00 1167.2
20260504022447 0 0.0 0.0 0.00 0.00 0.00 1167.4
20260504021943 0 0.0 0.0 0.00 0.00 0.00 1167.1
20260504021441 0 0.0 0.0 0.00 0.00 0.00 1167.2
20260504020938 0 0.0 0.0 0.00 0.00 0.00 1167.0
20260504020434 0 0.0 0.0 0.00 0.00 0.00 1167.1
20260504015931 0 0.0 0.0 0.00 0.00 0.00 1167.1
20260504015427 0 0.0 0.0 0.00 0.00 0.00 1167.2
20260504014923 0 0.0 0.0 0.00 0.00 0.00 1167.0
20260504014419 0 0.0 0.0 0.00 0.00 0.00 1166.8
20260504013916 0 0.0 0.0 0.00 0.00 0.00 1167.0
20260504013415 0 0.0 0.0 0.00 0.00 0.00 1167.0
20260504012911 0 0.0 0.0 0.00 0.00 0.00 1167.0
20260504012409 0 0.0 0.0 0.00 0.00 0.00 1166.9
20260504011906 0 0.0 0.0 0.00 0.00 0.00 1166.8
20260504011403 0 0.0 0.0 0.00 0.00 0.00 1166.8
20260504010858 0 0.0 0.0 0.00 0.00 0.00 1167.0
20260504010354 0 0.0 0.0 0.00 0.00 0.00 1167.1
20260504005851 0 0.0 0.0 0.00 0.00 0.00 1166.9
20260504005348 0 0.0 0.0 0.00 0.00 0.00 1167.0
20260504004845 0 0.0 0.0 0.00 0.00 0.00 1166.6
20260504004343 0 0.0 0.0 0.00 0.00 0.00 1166.8
20260504003839 0 0.0 0.0 0.00 0.00 0.00 1166.8
20260504003336 0 0.0 0.0 0.00 0.00 0.00 1166.9
20260504002833 0 0.0 0.0 0.00 0.00 0.00 1166.9
20260504002329 0 0.0 0.0 0.00 0.00 0.00 1166.9
20260504001827 0 0.0 0.0 0.00 0.00 0.00 1167.0
20260504001324 0 0.0 0.0 0.00 0.00 0.00 1166.9
20260504000821 0 0.0 0.0 0.00 0.00 0.00 1166.9
20260504000318 0 0.0 0.0 0.00 0.00 0.00 1166.9
20260503235816 0 0.0 0.0 0.00 0.00 0.00 1166.9
20260503235313 0 0.0 0.0 0.00 0.00 0.00 1167.0
20260503234811 0 0.0 0.0 0.00 0.00 0.00 1167.2
20260503234308 0 0.0 0.0 0.00 0.00 0.00 1167.1
20260503233806 0 0.0 0.0 0.00 0.00 0.00 1167.3
20260503233301 0 0.0 0.0 0.00 0.00 0.00 1167.2
20260503232759 0 0.0 0.0 0.00 0.00 0.00 1167.2
20260503232256 0 0.0 0.0 0.00 0.00 0.00 1167.4
20260503231754 0 0.0 0.0 0.00 0.00 0.00 1167.1
20260503231251 0 0.0 0.0 0.00 0.00 0.00 1167.2
20260503230746 0 0.0 0.0 0.00 0.00 0.00 1167.3
20260503230244 0 0.0 0.0 0.00 0.00 0.00 1167.3
20260503225741 0 0.0 0.0 0.00 0.00 0.00 1167.4
20260503225241 0 0.0 0.0 0.00 0.00 0.00 1167.6
20260503224738 0 0.0 0.0 0.00 0.00 0.00 1167.6
20260503224236 0 0.0 0.0 0.00 0.00 0.00 1167.7
20260503223734 0 0.0 0.0 0.00 0.00 0.00 1167.4
20260503223231 0 0.0 0.0 0.00 0.00 0.00 1167.4
20260503222727 0 0.0 0.0 0.00 0.00 0.00 1167.6
20260503222225 0 0.0 0.0 0.00 0.00 0.00 1167.7
20260503221723 0 0.0 0.0 0.00 0.00 0.00 1167.8
20260503221221 0 0.0 0.0 0.00 0.00 0.00 1167.8
20260503220717 0 0.0 0.0 0.00 0.00 0.00 1168.0
20260503220214 0 0.0 0.0 0.00 0.00 0.00 1168.0
20260503215710 0 0.0 0.0 0.00 0.00 0.00 1167.7
20260503215208 0 0.0 0.0 0.00 0.00 0.00 1167.9
20260503214706 0 0.0 0.0 0.00 0.00 0.00 1168.0
20260503214201 0 0.0 0.0 0.00 0.00 0.00 1167.9
20260503213655 0 0.0 0.0 0.00 0.00 0.00 1167.9
20260503213152 0 0.0 0.0 0.00 0.00 0.00 1168.1
20260503212649 0 0.0 0.0 0.00 0.00 0.00 1168.1
20260503212146 0 0.0 0.0 0.00 0.00 0.00 1168.1
20260503211644 0 0.0 0.0 0.00 0.00 0.00 1168.4
20260503211139 0 0.0 0.0 0.00 0.00 0.00 1168.4
20260503210636 0 0.0 0.0 0.00 0.00 0.00 1168.2
20260503210132 0 0.0 0.0 0.00 0.00 0.00 1168.5
20260503205628 0 0.0 0.0 0.00 0.00 0.00 1168.7